createdAt,value
2018-11-04T00:00:55.911Z,39.20
2018-11-04T00:03:24.764Z,47.80
2018-11-04T00:05:53.563Z,43.07
2018-11-04T00:08:22.088Z,37.73
2018-11-04T00:10:50.573Z,47.37
2018-11-04T00:13:19.131Z,42.13
2018-11-04T00:15:47.656Z,42.53
2018-11-04T00:18:16.179Z,40.17
2018-11-04T00:20:44.664Z,38.30
2018-11-04T00:23:13.148Z,42.10
2018-11-04T00:25:41.631Z,38.97
2018-11-04T00:28:12.124Z,41.27
2018-11-04T00:30:40.648Z,39.07
2018-11-04T00:33:09.167Z,41.00
2018-11-04T00:35:37.694Z,42.43
2018-11-04T00:38:06.566Z,44.27
2018-11-04T00:40:35.061Z,40.40
2018-11-04T00:43:03.536Z,40.37
2018-11-04T00:45:32.138Z,35.43
2018-11-04T00:48:00.576Z,40.77
2018-11-04T00:50:29.029Z,37.73
2018-11-04T00:52:57.552Z,42.13
2018-11-04T00:55:26.026Z,40.17
2018-11-04T00:57:54.580Z,39.17
2018-11-04T01:00:23.061Z,40.07
2018-11-04T01:02:51.555Z,41.07
2018-11-04T01:05:20.076Z,42.27
2018-11-04T01:07:48.519Z,43.60
2018-11-04T01:10:17.001Z,43.43
2018-11-04T01:12:45.936Z,40.57
2018-11-04T01:15:15.144Z,38.87
2018-11-04T01:17:44.060Z,36.57
2018-11-04T01:20:14.320Z,37.80
2018-11-04T01:22:43.075Z,39.70
2018-11-04T01:25:11.546Z,40.43
2018-11-04T01:27:40.635Z,41.63
2018-11-04T01:30:11.613Z,46.33
2018-11-04T01:32:40.019Z,47.20
2018-11-04T01:35:08.938Z,46.93
2018-11-04T01:37:37.585Z,50.83
2018-11-04T01:40:07.104Z,47.20
2018-11-04T01:42:35.936Z,51.37
2018-11-04T01:45:05.165Z,53.53
2018-11-04T01:47:33.639Z,49.87
2018-11-04T01:50:02.111Z,50.13
2018-11-04T01:52:30.601Z,47.50
2018-11-04T01:54:59.085Z,45.50
2018-11-04T01:57:27.592Z,48.23
2018-11-04T01:59:56.044Z,51.77
2018-11-04T02:02:24.519Z,49.67
2018-11-04T02:04:52.972Z,53.23
2018-11-04T02:07:21.513Z,53.23
2018-11-04T02:09:49.968Z,59.67
2018-11-04T02:12:18.424Z,59.40
2018-11-04T02:14:46.920Z,57.53
2018-11-04T02:17:15.376Z,51.27
2018-11-04T02:19:43.829Z,53.00
2018-11-04T02:22:12.278Z,52.57
2018-11-04T02:24:40.736Z,51.27
2018-11-04T02:27:09.197Z,55.30
2018-11-04T02:29:37.665Z,52.67
2018-11-04T02:32:09.907Z,52.03
2018-11-04T02:34:38.368Z,44.60
2018-11-04T02:37:06.810Z,43.13
2018-11-04T02:39:35.275Z,45.93
2018-11-04T02:42:03.736Z,44.27
2018-11-04T02:44:32.199Z,45.57
2018-11-04T02:47:00.683Z,40.20
2018-11-04T02:49:29.128Z,50.73
2018-11-04T02:51:57.591Z,45.67
2018-11-04T02:54:26.090Z,45.03
2018-11-04T02:56:54.563Z,42.57
2018-11-04T02:59:23.008Z,43.17
2018-11-04T03:01:51.490Z,36.07
2018-11-04T03:04:19.972Z,36.47
2018-11-04T03:06:48.453Z,39.20
2018-11-04T03:09:17.012Z,36.73
2018-11-04T03:11:45.470Z,38.33
2018-11-04T03:14:13.935Z,39.70
2018-11-04T03:16:42.413Z,34.07
2018-11-04T03:19:10.941Z,34.77
2018-11-04T03:21:39.451Z,33.43
2018-11-04T03:24:07.914Z,33.77
2018-11-04T03:26:36.388Z,33.13
2018-11-04T03:29:05.056Z,36.87
2018-11-04T03:31:33.521Z,32.47
2018-11-04T03:34:01.988Z,35.97
2018-11-04T03:36:30.512Z,34.17
2018-11-04T03:38:58.981Z,33.43
2018-11-04T03:41:27.433Z,32.03
2018-11-04T03:43:55.904Z,34.50
2018-11-04T03:46:24.332Z,31.17
2018-11-04T03:48:52.782Z,30.77
2018-11-04T03:51:21.230Z,29.90
2018-11-04T03:53:49.683Z,33.00
2018-11-04T03:56:18.122Z,34.43
2018-11-04T03:58:46.560Z,34.47
2018-11-04T04:01:15.004Z,34.53
2018-11-04T04:03:43.454Z,32.93
2018-11-04T04:06:11.925Z,32.17
2018-11-04T04:08:40.390Z,32.20
2018-11-04T04:11:08.905Z,32.17
2018-11-04T04:13:37.384Z,33.47
2018-11-04T04:16:05.869Z,38.20
2018-11-04T04:18:34.312Z,32.47
2018-11-04T04:21:07.856Z,30.97
2018-11-04T04:23:36.918Z,30.73
2018-11-04T04:26:06.372Z,31.27
2018-11-04T04:28:34.923Z,30.67
2018-11-04T04:31:03.716Z,29.27
2018-11-04T04:33:32.200Z,30.90
2018-11-04T04:36:00.897Z,29.33
2018-11-04T04:38:29.355Z,29.03
2018-11-04T04:40:57.854Z,32.67
2018-11-04T04:43:26.364Z,34.77
2018-11-04T04:45:54.808Z,31.87
2018-11-04T04:48:23.284Z,31.33
2018-11-04T04:50:51.760Z,31.20
2018-11-04T04:53:23.117Z,34.50
2018-11-04T04:55:52.961Z,34.53
2018-11-04T04:58:21.711Z,32.63
2018-11-04T05:00:50.321Z,30.37
2018-11-04T05:03:18.773Z,30.13
2018-11-04T05:05:47.286Z,32.67
2018-11-04T05:08:15.738Z,28.23
2018-11-04T05:10:44.286Z,26.73
2018-11-04T05:13:12.746Z,33.70
2018-11-04T05:15:41.228Z,29.93
2018-11-04T05:18:09.676Z,32.53
2018-11-04T05:20:38.169Z,36.20
2018-11-04T05:23:07.075Z,30.40
2018-11-04T05:25:35.565Z,30.43
2018-11-04T05:28:04.008Z,32.77
2018-11-04T05:30:32.439Z,33.73
2018-11-04T05:33:00.925Z,32.17
2018-11-04T05:35:29.388Z,27.40
2018-11-04T05:37:57.877Z,31.27
2018-11-04T05:40:26.405Z,29.60
2018-11-04T05:42:54.896Z,30.70
2018-11-04T05:45:23.371Z,26.40
2018-11-04T05:47:51.817Z,30.90
2018-11-04T05:50:20.252Z,28.27
2018-11-04T05:52:48.730Z,28.90
2018-11-04T05:55:17.213Z,29.80
2018-11-04T05:57:45.651Z,25.73
2018-11-04T06:00:14.198Z,27.23
2018-11-04T06:02:42.668Z,26.43
2018-11-04T06:05:11.628Z,33.13
2018-11-04T06:07:40.428Z,29.73
2018-11-04T06:10:08.875Z,27.20
2018-11-04T06:12:37.997Z,30.57
2018-11-04T06:15:07.209Z,31.50
2018-11-04T06:17:35.727Z,31.87
2018-11-04T06:20:04.509Z,34.53
2018-11-04T06:22:33.039Z,36.47
2018-11-04T06:25:01.514Z,34.50
2018-11-04T06:27:29.965Z,32.90
2018-11-04T06:33:30.337Z,33.90
2018-11-04T06:35:58.801Z,30.13
2018-11-04T06:38:27.267Z,31.20
2018-11-04T06:40:55.853Z,33.40
2018-11-04T06:43:24.318Z,31.40
2018-11-04T06:45:52.749Z,28.43
2018-11-04T06:48:21.223Z,30.67
2018-11-04T06:50:49.743Z,27.10
2018-11-04T06:53:18.190Z,27.67
2018-11-04T06:55:46.660Z,27.63
2018-11-04T06:58:15.084Z,27.63
2018-11-04T07:00:43.530Z,27.67
2018-11-04T07:03:12.041Z,30.07
2018-11-04T07:05:40.626Z,27.30
2018-11-04T07:08:09.077Z,29.77
2018-11-04T07:10:37.771Z,29.43
2018-11-04T07:13:06.216Z,27.17
2018-11-04T07:15:34.673Z,30.80
2018-11-04T07:18:03.149Z,28.83
2018-11-04T07:20:31.712Z,27.97
2018-11-04T07:23:00.198Z,28.73
2018-11-04T07:25:28.668Z,30.67
2018-11-04T07:27:57.134Z,28.87
2018-11-04T07:30:25.740Z,30.87
2018-11-04T07:32:54.175Z,27.27
2018-11-04T07:35:22.640Z,33.13
2018-11-04T07:37:51.096Z,33.43
2018-11-04T07:40:19.565Z,30.13
2018-11-04T07:42:48.092Z,27.93
2018-11-04T07:45:16.643Z,27.03
2018-11-04T07:47:45.192Z,32.23
2018-11-04T07:50:14.598Z,29.17
2018-11-04T07:52:44.648Z,30.20
2018-11-04T07:55:13.128Z,29.03
2018-11-04T07:57:42.764Z,37.47
2018-11-04T08:00:13.681Z,31.20
2018-11-04T08:02:42.454Z,30.43
2018-11-04T08:05:11.823Z,29.73
2018-11-04T08:07:41.235Z,30.43
2018-11-04T08:10:12.278Z,32.03
2018-11-04T08:12:40.953Z,32.20
2018-11-04T08:15:10.251Z,30.50
2018-11-04T08:17:39.370Z,30.23
2018-11-04T08:20:08.485Z,32.10
2018-11-04T08:22:37.004Z,31.33
2018-11-04T08:25:05.777Z,35.07
2018-11-04T08:27:34.319Z,32.93
2018-11-04T08:30:02.814Z,36.73
2018-11-04T08:32:31.306Z,36.67
2018-11-04T08:34:59.776Z,31.50
2018-11-04T08:37:28.355Z,34.40
2018-11-04T08:39:56.903Z,34.70
2018-11-04T08:42:25.407Z,36.10
2018-11-04T08:44:54.619Z,35.70
2018-11-04T08:47:23.105Z,44.63
2018-11-04T08:49:51.552Z,33.90
2018-11-04T08:52:20.195Z,35.20
2018-11-04T08:54:48.802Z,36.53
2018-11-04T08:57:17.280Z,30.13
2018-11-04T08:59:45.905Z,35.40
2018-11-04T09:02:14.685Z,37.07
2018-11-04T09:04:43.148Z,32.37
2018-11-04T09:07:11.599Z,30.20
2018-11-04T09:09:40.048Z,30.87
2018-11-04T09:12:08.509Z,31.93
2018-11-04T09:14:36.964Z,28.20
2018-11-04T09:17:06.136Z,29.00
2018-11-04T09:19:34.710Z,31.40
2018-11-04T09:22:03.371Z,24.73
2018-11-04T09:24:31.758Z,23.50
2018-11-04T09:27:00.241Z,24.10
2018-11-04T09:29:28.684Z,22.80
2018-11-04T09:31:57.134Z,24.70
2018-11-04T09:34:25.743Z,24.47
2018-11-04T09:36:54.185Z,22.43
2018-11-04T09:39:22.654Z,21.27
2018-11-04T09:41:51.172Z,21.17
2018-11-04T09:44:19.745Z,19.07
2018-11-04T09:46:48.218Z,19.70
2018-11-04T09:49:16.770Z,18.77
2018-11-04T09:51:45.251Z,20.57
2018-11-04T09:54:13.746Z,21.37
2018-11-04T09:56:42.415Z,21.77
2018-11-04T09:59:10.877Z,20.23
2018-11-04T10:01:39.323Z,20.30
2018-11-04T10:04:07.827Z,21.00
2018-11-04T10:06:36.312Z,19.40
2018-11-04T10:09:07.176Z,20.63
2018-11-04T10:11:35.641Z,21.57
2018-11-04T10:14:04.110Z,22.97
2018-11-04T10:16:32.564Z,22.43
2018-11-04T10:19:01.101Z,24.40
2018-11-04T10:51:42.146Z,21.80
2018-11-04T10:54:10.636Z,24.73
2018-11-04T10:56:39.175Z,26.33
2018-11-04T10:59:07.696Z,26.23
2018-11-04T11:01:36.174Z,22.33
2018-11-04T11:04:04.873Z,27.00
2018-11-04T11:06:33.342Z,25.33
2018-11-04T11:09:01.838Z,25.67
2018-11-04T11:11:30.348Z,25.53
2018-11-04T11:13:58.884Z,25.17
2018-11-04T11:16:27.344Z,25.50
2018-11-04T11:18:55.928Z,30.37
2018-11-04T11:21:24.413Z,26.67
2018-11-04T11:23:52.841Z,25.93
2018-11-04T11:26:21.374Z,28.90
2018-11-04T11:28:49.834Z,29.53
2018-11-04T11:31:18.319Z,27.53
2018-11-04T11:33:46.834Z,29.80
2018-11-04T11:36:15.315Z,26.37
2018-11-04T11:38:44.056Z,25.60
2018-11-04T11:41:12.513Z,26.40
2018-11-04T11:43:40.989Z,28.77
2018-11-04T11:46:09.463Z,28.87
2018-11-04T11:48:37.925Z,28.30
2018-11-04T11:51:06.461Z,27.10
2018-11-04T11:53:34.944Z,27.67
2018-11-04T11:56:03.453Z,28.33
2018-11-04T11:58:31.916Z,31.70
2018-11-04T12:01:00.407Z,29.83
2018-11-04T12:03:28.870Z,29.43
2018-11-04T12:05:57.331Z,30.37
2018-11-04T12:08:25.844Z,29.73
2018-11-04T12:10:54.314Z,27.87
2018-11-04T12:13:22.790Z,27.87
2018-11-04T12:15:51.266Z,33.23
2018-11-04T12:18:19.861Z,31.77
2018-11-04T12:20:48.317Z,28.13
2018-11-04T12:23:16.821Z,27.87
2018-11-04T12:25:45.351Z,28.17
2018-11-04T12:28:13.928Z,32.20
2018-11-04T12:30:42.408Z,29.97
2018-11-04T12:33:10.953Z,30.60
2018-11-04T12:35:39.534Z,31.63
2018-11-04T12:38:08.089Z,34.03
2018-11-04T12:40:36.540Z,31.03
2018-11-04T12:43:05.050Z,34.30
2018-11-04T12:45:33.938Z,31.17
2018-11-04T12:48:02.449Z,31.37
2018-11-04T12:50:30.903Z,32.40
2018-11-04T12:52:59.363Z,29.97
2018-11-04T12:55:27.867Z,34.40
2018-11-04T12:57:56.433Z,28.77
2018-11-04T13:00:24.914Z,29.30
2018-11-04T13:02:53.413Z,31.87
2018-11-04T13:05:21.907Z,30.00
2018-11-04T13:07:50.437Z,30.77
2018-11-04T13:10:19.134Z,32.20
2018-11-04T13:12:51.413Z,33.77
2018-11-04T13:15:19.903Z,33.33
2018-11-04T13:17:48.446Z,31.83
2018-11-04T13:20:25.508Z,32.90
2018-11-04T13:22:54.156Z,32.83
2018-11-04T13:25:22.904Z,31.63
2018-11-04T13:27:51.549Z,29.23
2018-11-04T13:30:20.159Z,30.77
2018-11-04T13:32:48.965Z,33.50
2018-11-04T13:35:17.569Z,30.80
2018-11-04T13:37:46.164Z,34.37
2018-11-04T13:40:14.817Z,33.43
2018-11-04T13:42:43.622Z,32.47
2018-11-04T13:45:12.521Z,31.37
2018-11-04T13:47:41.013Z,35.03
2018-11-04T13:50:11.588Z,33.70
2018-11-04T13:52:41.983Z,31.00
2018-11-04T13:55:10.455Z,35.83
2018-11-04T13:57:39.578Z,33.70
2018-11-04T14:00:15.570Z,33.33
2018-11-04T14:02:45.477Z,31.50
2018-11-04T14:05:13.949Z,33.53
2018-11-04T14:07:42.638Z,34.87
2018-11-04T14:10:21.820Z,32.27
2018-11-04T14:12:58.490Z,35.23
2018-11-04T14:15:26.938Z,31.17
2018-11-04T14:17:55.416Z,31.27
2018-11-04T14:20:23.891Z,35.13
2018-11-04T14:22:52.466Z,32.80
2018-11-04T14:25:20.930Z,32.50
2018-11-04T14:27:49.401Z,36.10
2018-11-04T14:30:18.012Z,33.57
2018-11-04T14:32:46.497Z,35.50
2018-11-04T14:35:14.970Z,37.90
2018-11-04T14:37:43.724Z,35.00
2018-11-04T14:47:32.250Z,34.43
2018-11-04T14:50:00.703Z,38.40
2018-11-04T14:52:29.184Z,40.87
2018-11-04T14:54:57.627Z,37.70
2018-11-04T14:57:26.107Z,41.63
2018-11-04T14:59:54.683Z,40.10
2018-11-04T15:02:23.103Z,38.70
2018-11-04T15:04:51.699Z,38.63
2018-11-04T15:07:20.259Z,38.93
2018-11-04T15:09:48.716Z,39.87
2018-11-04T15:12:17.202Z,40.23
2018-11-04T15:14:45.681Z,40.43
2018-11-04T15:17:14.247Z,41.50
2018-11-04T15:19:42.759Z,41.93
2018-11-04T15:22:11.241Z,45.30
2018-11-04T15:24:39.784Z,45.53
2018-11-04T15:27:08.330Z,46.67
2018-11-04T15:29:36.882Z,48.63
2018-11-04T15:32:05.784Z,50.67
2018-11-04T15:34:34.802Z,48.23
2018-11-04T15:37:03.071Z,47.57
2018-11-04T15:39:31.550Z,47.13
2018-11-04T15:42:00.047Z,49.10
2018-11-04T15:44:28.584Z,50.27
2018-11-04T15:46:57.052Z,47.73
2018-11-04T15:49:25.572Z,52.07
2018-11-04T15:51:54.048Z,49.30
2018-11-04T15:54:22.569Z,52.70
2018-11-04T15:56:51.033Z,53.23
2018-11-04T15:59:19.544Z,53.93
2018-11-04T16:01:48.157Z,55.10
2018-11-04T16:04:16.912Z,54.47
2018-11-04T16:06:45.446Z,55.80
2018-11-04T16:09:14.102Z,57.23
2018-11-04T16:11:42.637Z,55.70
2018-11-04T16:14:11.171Z,62.20
2018-11-04T16:16:39.654Z,65.73
2018-11-04T16:19:08.078Z,62.17
2018-11-04T16:21:36.550Z,63.83
2018-11-04T16:24:05.432Z,61.67
2018-11-04T16:26:33.916Z,56.80
2018-11-04T16:29:02.380Z,56.20
2018-11-04T16:31:30.849Z,71.07
2018-11-04T16:33:59.309Z,77.03
2018-11-04T16:36:27.770Z,73.33
2018-11-04T16:38:56.320Z,67.47
2018-11-04T16:41:24.817Z,64.20
2018-11-04T16:43:53.391Z,73.17
2018-11-04T16:46:21.955Z,62.03
2018-11-04T16:48:50.783Z,67.03
2018-11-04T16:51:19.278Z,63.40
2018-11-04T16:53:47.777Z,72.23
2018-11-04T17:26:30.299Z,106.13
2018-11-04T17:28:58.816Z,121.03
2018-11-04T17:31:27.584Z,112.50
2018-11-04T17:33:56.116Z,118.00
2018-11-04T17:36:24.633Z,94.43
2018-11-04T17:38:53.101Z,84.23
2018-11-04T17:41:21.581Z,85.17
2018-11-04T17:43:50.039Z,81.00
2018-11-04T17:46:18.533Z,79.90
2018-11-04T17:48:47.011Z,77.63
2018-11-04T17:51:15.480Z,74.40
2018-11-04T17:53:43.972Z,65.83
2018-11-04T17:56:12.440Z,71.23
2018-11-04T17:58:40.940Z,76.57
2018-11-04T18:01:09.446Z,70.20
2018-11-04T18:03:37.902Z,69.40
2018-11-04T18:06:06.486Z,70.30
2018-11-04T18:08:34.985Z,78.37
2018-11-04T18:11:03.462Z,68.33
2018-11-04T18:13:31.996Z,73.33
2018-11-04T18:16:00.654Z,76.90
2018-11-04T18:18:29.246Z,75.20
2018-11-04T18:20:57.722Z,76.83
2018-11-04T18:23:26.208Z,74.50
2018-11-04T18:25:54.688Z,72.53
2018-11-04T18:28:23.301Z,73.60
2018-11-04T18:30:51.893Z,86.17
2018-11-04T18:33:20.428Z,71.10
2018-11-04T18:35:48.917Z,70.70
2018-11-04T18:38:17.388Z,68.80
2018-11-04T18:40:45.820Z,74.13
2018-11-04T18:43:14.299Z,66.80
2018-11-04T18:45:42.772Z,67.17
2018-11-04T18:48:11.245Z,71.07
2018-11-04T18:50:39.914Z,65.20
2018-11-04T18:53:08.394Z,64.03
2018-11-04T18:55:36.915Z,69.30
2018-11-04T18:58:05.744Z,69.60
2018-11-04T19:00:34.235Z,71.80
2018-11-04T19:03:02.810Z,68.47
2018-11-04T19:05:31.530Z,71.70
2018-11-04T19:07:59.960Z,69.57
2018-11-04T19:10:28.473Z,68.17
2018-11-04T19:12:56.923Z,70.73
2018-11-04T19:15:25.447Z,72.87
2018-11-04T19:17:53.941Z,72.13
2018-11-04T19:20:22.380Z,71.73
2018-11-04T19:22:50.860Z,76.10
2018-11-04T19:25:19.412Z,72.00
2018-11-04T19:27:47.860Z,77.83
2018-11-04T19:30:17.403Z,77.93
2018-11-04T19:32:46.184Z,77.97
2018-11-04T19:35:15.531Z,77.73
2018-11-04T19:37:44.007Z,80.03
2018-11-04T19:40:13.692Z,83.00
2018-11-04T19:42:42.225Z,86.47
2018-11-04T19:45:19.457Z,82.80
2018-11-04T19:47:47.896Z,79.40
2018-11-04T19:50:20.235Z,75.93
2018-11-04T19:52:48.804Z,83.97
2018-11-04T19:55:17.311Z,86.03
2018-11-04T19:57:45.778Z,94.60
2018-11-04T20:00:14.542Z,98.53
2018-11-04T20:02:43.022Z,91.10
2018-11-04T20:05:14.526Z,90.17
2018-11-04T20:07:43.034Z,104.30
2018-11-04T20:10:59.527Z,104.40
2018-11-04T20:16:15.436Z,95.63
2018-11-04T20:21:38.885Z,92.13
2018-11-04T20:24:12.712Z,95.17
2018-11-04T20:26:41.225Z,91.63
2018-11-04T20:29:27.215Z,96.10
2018-11-04T20:32:04.346Z,103.07
2018-11-04T20:34:32.828Z,95.33
2018-11-04T20:37:01.374Z,115.37
2018-11-04T20:39:35.209Z,111.00
2018-11-04T20:42:07.320Z,111.00
2018-11-04T20:45:13.528Z,103.03
2018-11-04T20:57:15.868Z,121.10
2018-11-04T20:59:44.345Z,107.77
2018-11-04T21:02:12.991Z,103.70
2018-11-04T21:08:02.782Z,98.73
2018-11-04T21:10:31.602Z,115.33
2018-11-04T21:13:00.076Z,112.23
2018-11-04T21:15:28.575Z,111.60
2018-11-04T21:17:57.072Z,109.20
2018-11-04T21:20:25.548Z,112.60
2018-11-04T21:22:54.033Z,112.77
2018-11-04T21:25:22.648Z,104.80
2018-11-04T21:27:51.081Z,102.07
2018-11-04T21:30:19.525Z,112.40
2018-11-04T21:32:47.990Z,105.77
2018-11-04T21:35:16.460Z,99.10
2018-11-04T21:37:45.031Z,103.63
2018-11-04T21:40:13.589Z,99.20
2018-11-04T21:42:42.144Z,100.40
2018-11-04T21:45:12.205Z,97.33
2018-11-04T21:47:40.753Z,84.80
2018-11-04T21:50:10.097Z,84.70
2018-11-04T21:52:38.671Z,88.60
2018-11-04T21:55:09.348Z,94.40
2018-11-04T21:57:37.945Z,90.50
2018-11-04T22:00:08.502Z,81.63
2018-11-04T22:02:37.220Z,92.00
2018-11-04T22:05:06.044Z,101.97
2018-11-04T22:07:34.543Z,97.27
2018-11-04T22:10:03.037Z,93.83
2018-11-04T22:12:31.511Z,90.93
2018-11-04T22:15:00.145Z,103.57
2018-11-04T22:17:28.688Z,99.37
2018-11-04T22:19:57.141Z,99.47
2018-11-04T22:22:25.609Z,99.67
2018-11-04T22:24:54.076Z,101.87
2018-11-04T22:27:22.565Z,104.53
2018-11-04T22:29:51.050Z,104.13
2018-11-04T22:32:19.515Z,96.87
2018-11-04T22:34:47.986Z,110.67
2018-11-04T22:37:16.470Z,112.63
2018-11-04T22:39:44.982Z,119.37
2018-11-04T22:42:13.454Z,115.30
2018-11-04T22:44:41.928Z,122.77
2018-11-04T22:47:10.414Z,125.00
2018-11-04T22:49:38.886Z,176.02
2018-11-04T22:52:07.505Z,132.90
2018-11-04T22:54:35.981Z,146.57
2018-11-04T22:57:04.465Z,144.93
2018-11-04T22:59:32.976Z,123.30
2018-11-04T23:02:01.449Z,126.17
2018-11-04T23:04:35.367Z,136.33
2018-11-04T23:07:03.862Z,138.80
2018-11-04T23:09:32.640Z,135.07
2018-11-04T23:12:01.088Z,138.80
2018-11-04T23:14:29.521Z,143.30
2018-11-04T23:16:58.061Z,129.40
2018-11-04T23:19:26.623Z,145.07
2018-11-04T23:21:55.109Z,134.67
2018-11-04T23:24:23.591Z,150.27
2018-11-04T23:26:52.088Z,160.63
2018-11-04T23:29:20.666Z,158.23
2018-11-04T23:31:49.125Z,158.83
2018-11-04T23:34:17.587Z,144.43
2018-11-04T23:36:46.049Z,140.13
2018-11-04T23:39:14.667Z,147.03
2018-11-04T23:41:43.140Z,143.10
2018-11-04T23:44:11.619Z,149.40
2018-11-04T23:46:40.070Z,134.20
2018-11-04T23:49:08.606Z,143.97
2018-11-04T23:51:37.184Z,129.60
2018-11-04T23:54:06.385Z,130.10
2018-11-04T23:56:34.836Z,145.83
2018-11-04T23:59:03.288Z,121.57
